サンフランシスコ の空港の天気 - METARとTAF

サンフランシスコ国際空港 ( KSFO / SFO ) - アメリカ カリフォルニア州サンマテオ郡
飛行場実況気象(Metar)
観測時間01/22 20:56 PST (01/23 04:56 UTC)
風向・風速北北西 4m/s
視程10km以上
天気現象
少しの雲 雲底高度 3660m
気温11.1℃
湿度80%
気圧1026.7hPa
METARKSFO 230456Z 34007KT 10SM FEW120 11/08 A3032 RMK AO2 SLP267 T01110078
過去の天気等 Google飛行場航空写真 Wunderground天気予報

過去48時間のMETAR

飛行場予報(TAF)
発表時間: 1/22 21:35 PST (1/23 05:35 UTC)
予報対象時間: 22日22時 PST ~ 24日4時 PST
風向・風速北北西 3m/s
視程10km以上
全天の4割程度の雲 雲底高度 3,660m
23日0時 PST から
風向・風速北東 2m/s
視程10km以上
全天の8割程度の雲 雲底高度 610m
23日4時 PST から
風向・風速東北東 3m/s
視程10km以上
全天の8割程度の雲 雲底高度 370m
23日4時 PST ~ 23日8時 PST に一時的に
視程4,830m
天気現象もや
23日10時 PST から
風向・風速東 2m/s
視程10km以上
全天の8割程度の雲 雲底高度 370m
23日12時 PST から
風向・風速東北東 3m/s
視程10km以上
全天の4割程度の雲 雲底高度 460m
23日20時 PST から
風向・風速不定 2m/s
視程10km以上
全天の4割程度の雲 雲底高度 6,100m
KSFO 230535Z 2306/2412 34006KT P6SM SCT120
FM230800 04004KT P6SM BKN020
FM231200 06005KT P6SM BKN012
TEMPO 2312/2316 3SM BR
FM231800 08003KT P6SM BKN012
FM232000 06005KT P6SM SCT015
FM240400 VRB03KT P6SM SCT200